createdAt,value
2022-11-15T00:01:11.245Z,14.15
2022-11-15T00:03:38.023Z,13.68
2022-11-15T00:06:05.853Z,12.45
2022-11-15T00:08:33.936Z,15.80
2022-11-15T00:11:02.515Z,15.45
2022-11-15T00:13:30.713Z,15.50
2022-11-15T00:16:00.142Z,15.90
2022-11-15T00:18:28.292Z,15.80
2022-11-15T00:20:56.718Z,16.50
2022-11-15T00:23:24.094Z,17.38
2022-11-15T00:25:59.161Z,15.93
2022-11-15T00:28:26.701Z,15.98
2022-11-15T00:30:54.303Z,14.43
2022-11-15T00:33:21.143Z,14.10
2022-11-15T00:35:48.009Z,14.25
2022-11-15T00:38:15.439Z,17.60
2022-11-15T00:40:42.778Z,15.77
2022-11-15T00:43:09.837Z,17.17
2022-11-15T00:45:37.103Z,13.93
2022-11-15T00:48:04.233Z,15.85
2022-11-15T00:50:31.456Z,13.32
2022-11-15T00:52:58.421Z,16.15
2022-11-15T00:55:26.588Z,18.27
2022-11-15T00:57:54.161Z,15.80
2022-11-15T01:00:21.920Z,15.52
2022-11-15T01:02:50.026Z,16.15
2022-11-15T01:05:17.553Z,14.52
2022-11-15T01:07:45.251Z,14.30
2022-11-15T01:10:12.780Z,13.43
2022-11-15T01:12:40.290Z,13.50
2022-11-15T01:15:08.789Z,12.60
2022-11-15T01:17:36.042Z,15.35
2022-11-15T01:20:07.425Z,15.18
2022-11-15T01:22:34.728Z,18.02
2022-11-15T01:25:02.073Z,13.48
2022-11-15T01:27:29.455Z,18.08
2022-11-15T01:29:57.553Z,18.40
2022-11-15T01:32:25.593Z,15.65
2022-11-15T01:34:53.314Z,18.05
2022-11-15T01:37:21.047Z,16.42
2022-11-15T01:39:48.560Z,18.95
2022-11-15T01:42:15.745Z,20.33
2022-11-15T01:44:56.122Z,19.85
2022-11-15T01:47:31.668Z,17.98
2022-11-15T01:49:59.411Z,16.80
2022-11-15T01:52:29.707Z,18.83
2022-11-15T01:55:10.499Z,18.63
2022-11-15T01:57:38.434Z,17.95
2022-11-15T02:00:06.889Z,16.55
2022-11-15T02:02:35.224Z,17.88
2022-11-15T02:05:02.118Z,15.10
2022-11-15T02:07:30.763Z,14.63
2022-11-15T02:10:02.688Z,16.52
2022-11-15T02:12:31.989Z,16.75
2022-11-15T02:14:59.438Z,14.95
2022-11-15T02:17:26.605Z,15.75
2022-11-15T02:20:02.065Z,19.08
2022-11-15T02:22:58.789Z,17.20
2022-11-15T02:25:39.489Z,17.27
2022-11-15T02:28:24.953Z,15.63
2022-11-15T02:31:00.707Z,14.63
2022-11-15T02:33:33.674Z,16.08
2022-11-15T02:36:10.756Z,15.85
2022-11-15T02:38:52.201Z,13.80
2022-11-15T02:41:27.894Z,15.27
2022-11-15T02:44:04.543Z,15.75
2022-11-15T02:47:04.150Z,13.70
2022-11-15T02:49:35.448Z,14.07
2022-11-15T02:52:02.543Z,15.02
2022-11-15T02:54:33.765Z,18.25
2022-11-15T02:57:06.501Z,17.65
2022-11-15T03:00:02.171Z,13.15
2022-11-15T03:02:47.578Z,16.17
2022-11-15T03:05:33.067Z,14.63
2022-11-15T03:08:29.389Z,15.95
2022-11-15T03:11:14.568Z,12.98
2022-11-15T03:14:10.717Z,10.80
2022-11-15T03:16:59.400Z,12.10
2022-11-15T03:19:44.909Z,11.43
2022-11-15T03:22:16.711Z,11.55
2022-11-15T03:24:46.390Z,10.85
2022-11-15T03:27:18.477Z,10.15
2022-11-15T03:29:51.257Z,10.75
2022-11-15T03:32:25.533Z,11.70
2022-11-15T03:35:10.129Z,12.27
2022-11-15T03:37:43.608Z,12.90
2022-11-15T03:40:11.625Z,11.43
2022-11-15T03:42:47.741Z,13.90
2022-11-15T03:45:17.464Z,11.32
2022-11-15T03:47:55.343Z,10.55
2022-11-15T03:50:23.896Z,11.38
2022-11-15T03:52:51.866Z,11.18
2022-11-15T03:55:21.232Z,13.80
2022-11-15T03:57:51.839Z,14.10
2022-11-15T04:00:18.807Z,13.40
2022-11-15T04:02:45.740Z,11.55
2022-11-15T04:05:12.828Z,13.98
2022-11-15T04:07:39.613Z,13.93
2022-11-15T04:10:07.524Z,15.15
2022-11-15T04:12:36.588Z,13.60
2022-11-15T04:15:09.054Z,12.75
2022-11-15T04:17:45.845Z,13.88
2022-11-15T04:20:39.221Z,16.55
2022-11-15T04:23:30.295Z,14.27
2022-11-15T04:26:01.956Z,14.90
2022-11-15T04:28:28.734Z,17.17
2022-11-15T04:30:55.645Z,16.48
2022-11-15T04:33:23.530Z,15.65
2022-11-15T04:36:09.452Z,14.05
2022-11-15T04:38:37.317Z,14.68
2022-11-15T04:41:04.570Z,15.48
2022-11-15T04:43:31.879Z,11.32
2022-11-15T04:45:59.472Z,14.98
2022-11-15T04:48:26.749Z,14.18
2022-11-15T04:50:53.945Z,14.48
2022-11-15T04:53:21.136Z,14.57
2022-11-15T04:55:48.158Z,12.43
2022-11-15T04:58:15.336Z,12.25
2022-11-15T05:00:42.263Z,30.05
2022-11-15T05:03:29.179Z,44.45
2022-11-15T05:05:56.649Z,16.00
2022-11-15T05:08:23.396Z,13.65
2022-11-15T05:10:50.602Z,13.27
2022-11-15T05:13:17.820Z,12.90
2022-11-15T05:15:44.798Z,11.00
2022-11-15T05:18:12.749Z,16.08
2022-11-15T05:20:39.994Z,12.75
2022-11-15T05:23:07.156Z,12.95
2022-11-15T05:25:34.380Z,13.65
2022-11-15T05:28:04.299Z,13.10
2022-11-15T05:30:31.272Z,13.38
2022-11-15T05:32:58.380Z,13.30
2022-11-15T05:35:38.108Z,14.18
2022-11-15T05:38:05.269Z,13.23
2022-11-15T05:40:32.991Z,13.98
2022-11-15T05:43:02.996Z,14.73
2022-11-15T05:45:30.443Z,16.05
2022-11-15T05:48:00.411Z,12.48
2022-11-15T05:50:28.462Z,13.68
2022-11-15T05:52:56.944Z,15.18
2022-11-15T05:55:26.980Z,13.68
2022-11-15T05:57:53.993Z,14.10
2022-11-15T06:00:20.929Z,14.15
2022-11-15T06:02:47.673Z,17.80
2022-11-15T06:05:14.496Z,15.93
2022-11-15T06:07:41.740Z,13.65
2022-11-15T06:10:09.212Z,15.85
2022-11-15T06:12:36.128Z,17.58
2022-11-15T06:15:02.932Z,12.90
2022-11-15T06:17:30.220Z,14.68
2022-11-15T06:19:57.490Z,16.90
2022-11-15T06:22:24.769Z,15.07
2022-11-15T06:24:51.533Z,14.40
2022-11-15T06:27:18.347Z,17.13
2022-11-15T06:29:45.192Z,14.75
2022-11-15T06:32:11.986Z,15.90
2022-11-15T06:34:38.772Z,12.73
2022-11-15T06:37:06.007Z,14.88
2022-11-15T06:39:33.140Z,16.25
2022-11-15T06:41:59.888Z,13.50
2022-11-15T06:44:26.711Z,16.95
2022-11-15T06:46:53.902Z,16.13
2022-11-15T06:49:20.715Z,17.05
2022-11-15T06:51:47.480Z,20.70
2022-11-15T06:54:14.295Z,14.88
2022-11-15T06:56:41.554Z,20.23
2022-11-15T06:59:08.394Z,13.40
2022-11-15T07:01:35.687Z,17.17
2022-11-15T07:04:02.527Z,16.00
2022-11-15T07:06:29.749Z,19.67
2022-11-15T07:08:56.557Z,20.10
2022-11-15T07:11:23.351Z,21.13
2022-11-15T07:13:50.133Z,17.30
2022-11-15T07:16:16.995Z,35.90
2022-11-15T07:18:44.910Z,24.67
2022-11-15T07:21:12.456Z,21.45
2022-11-15T07:23:40.249Z,33.97
2022-11-15T07:26:08.955Z,23.25
2022-11-15T07:28:36.447Z,24.20
2022-11-15T07:31:05.764Z,23.50
2022-11-15T07:33:33.249Z,17.50
2022-11-15T07:36:02.652Z,21.77
2022-11-15T07:38:29.956Z,27.80
2022-11-15T07:41:02.475Z,29.52
2022-11-15T07:43:31.025Z,24.38
2022-11-15T07:45:59.516Z,29.58
2022-11-15T07:48:32.162Z,31.08
2022-11-15T07:51:14.659Z,28.30
2022-11-15T07:53:43.418Z,22.92
2022-11-15T08:31:23.358Z,29.90
2022-11-15T08:33:52.754Z,33.42
2022-11-15T08:39:11.078Z,47.78
2022-11-15T08:41:39.572Z,41.50
2022-11-15T08:46:42.392Z,36.63
2022-11-15T08:56:56.703Z,40.28
2022-11-15T08:59:24.320Z,37.53
2022-11-15T09:01:51.645Z,43.67
2022-11-15T09:04:19.307Z,44.55
2022-11-15T09:06:46.571Z,44.78
2022-11-15T09:12:02.539Z,56.67
2022-11-15T09:17:46.439Z,54.70
2022-11-15T09:20:14.278Z,45.78
2022-11-15T09:22:50.668Z,45.58
2022-11-15T09:25:20.931Z,53.03
2022-11-15T09:49:32.520Z,22.15
2022-11-15T09:52:00.217Z,21.25
2022-11-15T09:54:56.414Z,22.95
2022-11-15T09:57:34.674Z,24.30
2022-11-15T10:08:38.806Z,41.25
2022-11-15T10:11:40.426Z,38.80
2022-11-15T10:14:25.054Z,41.30
2022-11-15T10:17:19.419Z,38.80
2022-11-15T10:20:16.020Z,38.45
2022-11-15T10:22:49.557Z,30.38
2022-11-15T10:25:29.387Z,38.28
2022-11-15T10:28:11.509Z,38.28
2022-11-15T10:30:42.375Z,36.08
2022-11-15T10:33:27.618Z,34.30
2022-11-15T10:36:22.773Z,36.72
2022-11-15T10:38:53.849Z,37.47
2022-11-15T10:41:27.523Z,36.63
2022-11-15T10:44:13.047Z,39.45
2022-11-15T10:46:47.729Z,38.30
2022-11-15T10:49:31.128Z,34.25
2022-11-15T10:51:59.923Z,37.65
2022-11-15T10:54:34.454Z,33.80
2022-11-15T10:57:08.529Z,39.78
2022-11-15T10:59:39.400Z,37.55
2022-11-15T11:02:30.719Z,34.35
2022-11-15T11:04:58.654Z,36.50
2022-11-15T11:07:32.444Z,33.05
2022-11-15T11:13:26.776Z,28.40
2022-11-15T11:15:56.370Z,27.63
2022-11-15T11:18:34.327Z,27.73
2022-11-15T11:21:20.255Z,34.03
2022-11-15T11:23:58.749Z,27.45
2022-11-15T11:26:39.536Z,27.27
2022-11-15T11:29:44.107Z,37.25
2022-11-15T11:32:35.497Z,34.55
2022-11-15T11:35:31.733Z,37.80
2022-11-15T11:38:01.953Z,38.53
2022-11-15T11:40:31.408Z,35.58
2022-11-15T11:43:21.623Z,33.92
2022-11-15T11:46:27.982Z,35.22
2022-11-15T11:49:09.119Z,34.47
2022-11-15T11:51:44.632Z,34.35
2022-11-15T11:54:18.616Z,31.98
2022-11-15T11:56:46.559Z,29.33
2022-11-15T11:59:42.409Z,31.75
2022-11-15T12:02:27.730Z,28.05
2022-11-15T12:05:04.074Z,27.77
2022-11-15T12:07:35.065Z,26.48
2022-11-15T12:10:17.365Z,21.08
2022-11-15T12:13:25.455Z,23.77
2022-11-15T12:16:10.647Z,21.17
2022-11-15T12:18:38.585Z,23.80
2022-11-15T12:21:23.987Z,24.60
2022-11-15T12:24:01.134Z,17.52
2022-11-15T12:26:34.170Z,20.25
2022-11-15T12:29:08.625Z,24.02
2022-11-15T12:31:36.258Z,17.65
2022-11-15T12:34:21.455Z,14.27
2022-11-15T12:36:50.050Z,15.75
2022-11-15T12:39:17.946Z,18.80
2022-11-15T12:41:56.570Z,14.98
2022-11-15T12:44:32.607Z,17.50
2022-11-15T12:46:59.403Z,16.38
2022-11-15T12:49:29.228Z,15.73
2022-11-15T12:51:58.709Z,16.13
2022-11-15T12:54:25.618Z,17.08
2022-11-15T12:57:04.466Z,16.27
2022-11-15T13:00:02.752Z,22.02
2022-11-15T13:02:37.072Z,22.27
2022-11-15T13:05:36.880Z,22.30
2022-11-15T13:08:04.116Z,26.88
2022-11-15T13:10:36.257Z,48.88
2022-11-15T13:13:10.602Z,38.83
2022-11-15T13:15:42.467Z,30.60
2022-11-15T13:18:25.017Z,33.15
2022-11-15T13:20:51.841Z,41.08
2022-11-15T13:23:18.664Z,46.42
2022-11-15T13:25:59.812Z,29.02
2022-11-15T13:28:35.022Z,31.30
2022-11-15T13:31:29.275Z,66.97
2022-11-15T13:34:00.836Z,29.52
2022-11-15T13:36:36.387Z,27.25
2022-11-15T13:39:24.120Z,25.27
2022-11-15T13:41:52.858Z,31.98
2022-11-15T13:44:28.237Z,41.47
2022-11-15T13:47:15.191Z,40.03
2022-11-15T13:49:42.652Z,36.88
2022-11-15T13:52:15.130Z,37.80
2022-11-15T13:55:12.226Z,40.75
2022-11-15T13:57:47.399Z,45.30
2022-11-15T14:00:44.348Z,45.58
2022-11-15T14:03:25.645Z,38.65
2022-11-15T14:06:13.215Z,38.03
2022-11-15T14:08:58.772Z,35.75
2022-11-15T14:11:25.717Z,31.42
2022-11-15T14:14:10.495Z,47.88
2022-11-15T14:16:38.972Z,52.28
2022-11-15T14:19:07.997Z,41.17
2022-11-15T14:21:34.915Z,44.38
2022-11-15T14:24:22.419Z,49.58
2022-11-15T14:26:49.591Z,54.30
2022-11-15T14:29:27.223Z,71.18
2022-11-15T14:34:33.596Z,65.75
2022-11-15T14:37:00.664Z,71.40
2022-11-15T14:39:27.918Z,58.40
2022-11-15T14:41:54.996Z,78.20
2022-11-15T14:44:22.866Z,64.82
2022-11-15T14:46:49.886Z,76.60
2022-11-15T14:49:17.380Z,55.10
2022-11-15T14:51:44.330Z,60.72
2022-11-15T14:54:12.274Z,57.42
2022-11-15T14:56:39.267Z,58.90
2022-11-15T14:59:06.749Z,72.30
2022-11-15T15:01:34.326Z,65.80
2022-11-15T15:04:01.742Z,55.75
2022-11-15T15:06:28.994Z,78.85
2022-11-15T15:08:56.053Z,54.10
2022-11-15T15:11:26.309Z,77.95
2022-11-15T15:16:29.350Z,62.67
2022-11-15T15:19:00.210Z,57.88
2022-11-15T15:42:07.759Z,78.00
2022-11-15T15:45:21.245Z,70.50
2022-11-15T15:47:53.282Z,74.35
2022-11-15T15:50:29.335Z,67.75
2022-11-15T15:52:58.578Z,94.50
2022-11-15T15:55:26.474Z,80.97
2022-11-15T15:57:53.425Z,79.10
2022-11-15T16:00:21.316Z,85.75
2022-11-15T16:02:48.716Z,61.90
2022-11-15T16:05:15.699Z,95.15
2022-11-15T16:07:44.334Z,58.63
2022-11-15T16:10:35.582Z,75.97
2022-11-15T16:13:05.499Z,91.95
2022-11-15T16:15:33.203Z,96.30
2022-11-15T16:18:01.731Z,81.53
2022-11-15T16:20:40.236Z,71.82
2022-11-15T16:23:09.961Z,72.85
2022-11-15T16:25:49.499Z,54.65
2022-11-15T16:28:29.607Z,69.47
2022-11-15T16:31:06.937Z,73.30
2022-11-15T16:33:34.269Z,62.90
2022-11-15T16:36:02.135Z,67.55
2022-11-15T16:38:28.926Z,73.28
2022-11-15T16:40:55.726Z,71.53
2022-11-15T16:43:48.969Z,119.28
2022-11-15T16:46:30.025Z,86.22
2022-11-15T16:49:04.680Z,112.60
2022-11-15T16:51:32.269Z,128.10
2022-11-15T16:54:08.961Z,165.32
2022-11-15T16:56:42.424Z,178.70
2022-11-15T16:59:16.474Z,124.00
2022-11-15T17:01:54.070Z,274.13
2022-11-15T17:04:22.820Z,212.68
2022-11-15T17:06:50.474Z,241.73
2022-11-15T17:09:19.963Z,160.18
2022-11-15T17:11:47.438Z,171.07
2022-11-15T17:22:01.168Z,146.20
2022-11-15T17:24:28.731Z,238.75
2022-11-15T17:26:56.099Z,230.70
2022-11-15T17:29:23.417Z,243.43
2022-11-15T17:34:26.520Z,169.93
2022-11-15T17:36:54.287Z,198.98
2022-11-15T17:39:23.764Z,182.00
2022-11-15T17:41:51.268Z,129.32
2022-11-15T17:44:18.589Z,121.82
2022-11-15T17:46:45.865Z,130.45
2022-11-15T17:49:13.100Z,90.70
2022-11-15T17:51:41.870Z,125.97
2022-11-15T17:54:15.056Z,112.32
2022-11-15T17:56:43.231Z,132.88
2022-11-15T17:59:14.856Z,98.65
2022-11-15T18:01:44.774Z,131.70
2022-11-15T18:04:15.060Z,105.32
2022-11-15T18:06:43.163Z,110.00
2022-11-15T18:09:10.776Z,104.18
2022-11-15T18:11:41.619Z,117.10
2022-11-15T18:14:14.413Z,123.20
2022-11-15T18:16:42.808Z,136.98
2022-11-15T18:19:13.457Z,149.10
2022-11-15T18:21:57.800Z,116.03
2022-11-15T18:24:30.362Z,133.50
2022-11-15T18:27:00.967Z,112.10
2022-11-15T18:29:28.693Z,114.10
2022-11-15T18:31:57.048Z,145.25
2022-11-15T18:34:26.274Z,117.53
2022-11-15T18:36:54.023Z,128.82
2022-11-15T18:39:21.473Z,119.32
2022-11-15T18:41:49.599Z,134.55
2022-11-15T19:05:09.298Z,85.10
2022-11-15T22:03:02.863Z,100.28
2022-11-15T22:05:30.191Z,104.07
2022-11-15T22:07:56.974Z,97.43
2022-11-15T22:10:23.831Z,101.68
2022-11-15T22:12:50.541Z,95.10
2022-11-15T22:15:17.712Z,99.22
2022-11-15T22:17:59.751Z,92.82
2022-11-15T22:20:44.182Z,70.65
2022-11-15T22:23:12.214Z,73.90
2022-11-15T22:25:39.156Z,91.15
2022-11-15T22:28:06.002Z,91.07
2022-11-15T22:30:33.174Z,88.47
2022-11-15T22:32:59.943Z,80.68
2022-11-15T22:35:26.746Z,88.50
2022-11-15T22:37:53.569Z,76.15
2022-11-15T22:40:20.303Z,74.95
2022-11-15T22:42:47.058Z,81.65
2022-11-15T22:45:13.839Z,83.25
2022-11-15T22:47:40.731Z,84.13
2022-11-15T22:50:10.298Z,66.30
2022-11-15T22:52:37.143Z,59.58
2022-11-15T22:55:04.415Z,67.93
2022-11-15T22:57:34.280Z,56.10
2022-11-15T23:00:01.052Z,78.95
2022-11-15T23:02:27.824Z,72.53
2022-11-15T23:04:54.712Z,113.85
2022-11-15T23:07:21.905Z,117.18
2022-11-15T23:09:52.186Z,97.10
2022-11-15T23:12:37.894Z,81.35
2022-11-15T23:15:05.129Z,85.43
2022-11-15T23:17:32.484Z,84.50
2022-11-15T23:20:07.497Z,103.20
2022-11-15T23:22:49.457Z,84.20
2022-11-15T23:25:16.253Z,91.40
2022-11-15T23:27:47.450Z,121.03
2022-11-15T23:30:32.935Z,125.22
2022-11-15T23:33:18.281Z,104.80
2022-11-15T23:35:54.508Z,103.93
2022-11-15T23:38:21.365Z,115.35
2022-11-15T23:40:52.760Z,103.05
2022-11-15T23:43:20.039Z,115.30
2022-11-15T23:45:46.831Z,116.68
2022-11-15T23:48:13.659Z,112.63
2022-11-15T23:50:40.494Z,86.28
2022-11-15T23:53:07.262Z,92.25
2022-11-15T23:55:34.420Z,90.07
2022-11-15T23:58:01.188Z,88.55
